createdAt,value
2017-06-08T00:00:28.129Z,0
2017-06-08T00:01:08.616Z,0
2017-06-08T00:01:49.089Z,0
2017-06-08T00:02:29.567Z,0
2017-06-08T00:03:10.070Z,0
2017-06-08T00:03:50.563Z,0
2017-06-08T00:04:31.053Z,0
2017-06-08T00:05:11.547Z,0
2017-06-08T00:05:52.032Z,0
2017-06-08T00:06:32.512Z,0
2017-06-08T00:07:13.002Z,0
2017-06-08T00:07:53.520Z,0
2017-06-08T00:08:33.986Z,0
2017-06-08T00:09:14.499Z,0
2017-06-08T00:09:54.987Z,0
2017-06-08T00:10:35.468Z,0
2017-06-08T00:11:15.955Z,0
2017-06-08T00:11:56.443Z,0
2017-06-08T00:12:36.930Z,0
2017-06-08T00:13:17.409Z,0
2017-06-08T00:13:57.891Z,0
2017-06-08T00:14:38.428Z,0
2017-06-08T00:15:18.860Z,0
2017-06-08T00:15:59.366Z,0
2017-06-08T00:16:39.853Z,0
2017-06-08T00:17:20.334Z,0
2017-06-08T00:18:00.815Z,0
2017-06-08T00:18:41.286Z,0
2017-06-08T00:19:21.771Z,0
2017-06-08T00:20:02.244Z,0
2017-06-08T00:22:40.372Z,0
2017-06-08T00:23:20.869Z,0
2017-06-08T00:24:01.324Z,0
2017-06-08T00:24:41.818Z,0
2017-06-08T00:25:22.317Z,0
2017-06-08T00:26:02.773Z,0
2017-06-08T00:26:43.262Z,0
2017-06-08T00:27:23.747Z,0
2017-06-08T00:28:04.228Z,0
2017-06-08T00:28:44.712Z,0
2017-06-08T00:29:25.205Z,0
2017-06-08T00:30:05.693Z,0
2017-06-08T00:30:46.166Z,0
2017-06-08T00:31:26.655Z,0
2017-06-08T00:32:07.145Z,0
2017-06-08T00:32:47.649Z,0
2017-06-08T00:33:28.124Z,0
2017-06-08T00:34:08.619Z,0
2017-06-08T00:34:49.097Z,0
2017-06-08T00:35:29.587Z,0
2017-06-08T00:36:10.071Z,0
2017-06-08T00:36:50.573Z,0
2017-06-08T00:37:31.063Z,0
2017-06-08T00:38:11.543Z,0
2017-06-08T00:38:52.015Z,0
2017-06-08T00:39:32.495Z,0
2017-06-08T00:40:12.996Z,0
2017-06-08T00:40:53.463Z,0
2017-06-08T00:41:33.953Z,0
2017-06-08T00:42:14.444Z,0
2017-06-08T00:42:54.935Z,0
2017-06-08T00:43:35.942Z,0
2017-06-08T00:44:16.435Z,0
2017-06-08T00:44:56.912Z,0
2017-06-08T00:45:37.401Z,0
2017-06-08T00:46:17.885Z,0
2017-06-08T00:46:58.416Z,0
2017-06-08T00:47:38.858Z,0
2017-06-08T00:48:19.342Z,0
2017-06-08T00:48:59.826Z,0
2017-06-08T00:49:40.296Z,0
2017-06-08T00:50:20.795Z,0
2017-06-08T00:51:01.273Z,0
2017-06-08T00:51:41.746Z,0
2017-06-08T00:52:22.242Z,0
2017-06-08T00:53:02.736Z,0
2017-06-08T00:53:43.243Z,0
2017-06-08T00:54:23.702Z,0
2017-06-08T00:55:04.181Z,0
2017-06-08T00:55:44.681Z,0
2017-06-08T00:56:25.160Z,0
2017-06-08T00:57:05.673Z,0
2017-06-08T00:57:46.790Z,0
2017-06-08T00:58:27.285Z,0
2017-06-08T00:59:07.777Z,0
2017-06-08T00:59:48.267Z,0
2017-06-08T01:00:28.751Z,0
2017-06-08T01:01:09.250Z,0
2017-06-08T01:01:49.726Z,0
2017-06-08T01:02:30.193Z,0
2017-06-08T01:03:10.683Z,0
2017-06-08T01:03:51.190Z,0
2017-06-08T01:04:31.679Z,0
2017-06-08T01:05:12.167Z,0
2017-06-08T01:05:52.648Z,0
2017-06-08T01:06:33.132Z,0
2017-06-08T01:07:13.600Z,0
2017-06-08T01:07:54.140Z,0
2017-06-08T01:08:34.661Z,0
2017-06-08T01:09:15.130Z,0
2017-06-08T01:09:55.618Z,0
2017-06-08T01:10:36.096Z,0
2017-06-08T01:11:16.572Z,0
2017-06-08T01:11:57.070Z,0
2017-06-08T01:12:37.557Z,0
2017-06-08T01:13:18.051Z,0
2017-06-08T01:13:58.542Z,0
2017-06-08T01:14:39.023Z,0
2017-06-08T01:15:19.513Z,0
2017-06-08T01:16:00.019Z,0
2017-06-08T01:16:40.482Z,0
2017-06-08T01:17:20.980Z,0
2017-06-08T01:18:01.501Z,0
2017-06-08T01:18:41.937Z,0
2017-06-08T01:19:22.444Z,0
2017-06-08T01:20:02.930Z,0
2017-06-08T01:20:43.434Z,0
2017-06-08T01:21:23.922Z,0
2017-06-08T01:22:04.389Z,0
2017-06-08T01:22:44.880Z,0
2017-06-08T01:23:25.370Z,0
2017-06-08T01:24:05.847Z,0
2017-06-08T01:24:46.328Z,0
2017-06-08T01:25:26.846Z,0
2017-06-08T01:26:07.305Z,0
2017-06-08T01:26:47.797Z,0
2017-06-08T01:27:28.269Z,0
2017-06-08T01:28:08.760Z,0
2017-06-08T01:28:49.242Z,0
2017-06-08T01:29:29.718Z,0
2017-06-08T01:30:10.207Z,0
2017-06-08T01:30:50.696Z,0
2017-06-08T01:31:31.175Z,0
2017-06-08T01:32:11.650Z,0
2017-06-08T01:32:52.159Z,0
2017-06-08T01:33:32.619Z,0
2017-06-08T01:34:13.111Z,0
2017-06-08T01:34:53.601Z,0
2017-06-08T01:35:34.087Z,0
2017-06-08T01:36:14.586Z,0
2017-06-08T01:36:55.092Z,0
2017-06-08T01:37:35.554Z,0
2017-06-08T01:38:16.055Z,0
2017-06-08T01:38:56.527Z,0
2017-06-08T01:39:37.004Z,0
2017-06-08T01:40:17.504Z,0
2017-06-08T01:40:58.027Z,0
2017-06-08T01:41:38.456Z,0
2017-06-08T01:42:18.952Z,0
2017-06-08T01:42:59.485Z,0
2017-06-08T01:43:39.914Z,0
2017-06-08T01:44:20.419Z,0
2017-06-08T01:45:00.909Z,0
2017-06-08T01:45:41.369Z,0
2017-06-08T01:46:21.870Z,0
2017-06-08T01:47:02.358Z,0
2017-06-08T01:47:42.848Z,0
2017-06-08T01:48:23.315Z,0
2017-06-08T01:49:03.810Z,0
2017-06-08T01:49:44.298Z,0
2017-06-08T01:50:24.787Z,0
2017-06-08T01:51:05.279Z,0
2017-06-08T01:51:45.760Z,0
2017-06-08T01:52:26.248Z,0
2017-06-08T01:53:06.740Z,0
2017-06-08T01:53:47.218Z,0
2017-06-08T01:54:27.712Z,0
2017-06-08T01:55:08.203Z,0
2017-06-08T01:55:48.684Z,0
2017-06-08T01:56:29.173Z,0
2017-06-08T01:57:09.674Z,0
2017-06-08T01:57:50.157Z,0
2017-06-08T01:58:30.698Z,0
2017-06-08T01:59:11.180Z,0
2017-06-08T01:59:51.679Z,0
2017-06-08T02:00:32.167Z,0
2017-06-08T02:01:12.655Z,0
2017-06-08T02:01:53.130Z,0
2017-06-08T02:02:33.634Z,0
2017-06-08T02:03:14.112Z,0
2017-06-08T02:03:54.587Z,0
2017-06-08T02:04:35.091Z,0
2017-06-08T02:05:15.577Z,0
2017-06-08T02:05:56.084Z,0
2017-06-08T02:06:36.548Z,0
2017-06-08T02:07:17.037Z,0
2017-06-08T02:07:57.507Z,0
2017-06-08T02:08:37.990Z,0
2017-06-08T02:09:18.480Z,0
2017-06-08T02:09:58.976Z,0
2017-06-08T02:10:39.442Z,0
2017-06-08T02:11:19.922Z,0
2017-06-08T02:12:00.440Z,0
2017-06-08T02:12:40.917Z,0
2017-06-08T02:13:21.437Z,0
2017-06-08T02:14:01.908Z,0
2017-06-08T02:14:42.391Z,0
2017-06-08T02:15:22.873Z,0
2017-06-08T02:16:03.390Z,0
2017-06-08T02:16:43.875Z,0
2017-06-08T02:17:24.356Z,0
2017-06-08T02:18:04.828Z,0
2017-06-08T02:18:45.315Z,0
2017-06-08T02:19:25.808Z,0
2017-06-08T02:20:06.277Z,0
2017-06-08T02:20:46.779Z,0
2017-06-08T02:21:27.259Z,0
2017-06-08T02:22:07.752Z,0
2017-06-08T02:22:48.219Z,0
2017-06-08T02:23:28.714Z,0
2017-06-08T02:24:09.205Z,0
2017-06-08T02:24:49.683Z,0
2017-06-08T02:25:30.187Z,0
2017-06-08T02:28:03.142Z,0
2017-06-08T02:28:43.641Z,0
2017-06-08T02:29:24.150Z,0
2017-06-08T02:30:04.620Z,0
2017-06-08T02:30:45.120Z,0
2017-06-08T02:31:25.615Z,0
2017-06-08T02:32:06.080Z,0
2017-06-08T02:32:46.574Z,0
2017-06-08T02:33:27.057Z,0
2017-06-08T02:34:07.552Z,0
2017-06-08T02:34:48.036Z,0
2017-06-08T02:35:28.519Z,0
2017-06-08T02:36:08.968Z,0
2017-06-08T02:36:49.459Z,0
2017-06-08T02:37:29.938Z,0
2017-06-08T02:38:10.427Z,0
2017-06-08T02:38:50.925Z,0
2017-06-08T02:39:31.413Z,0
2017-06-08T02:40:11.889Z,0
2017-06-08T02:40:52.376Z,0
2017-06-08T02:41:32.862Z,0
2017-06-08T02:42:13.350Z,0
2017-06-08T02:42:53.840Z,0
2017-06-08T02:43:34.320Z,0
2017-06-08T02:44:14.799Z,0
2017-06-08T02:44:55.286Z,0
2017-06-08T02:45:35.791Z,0
2017-06-08T02:46:16.255Z,0
2017-06-08T02:46:56.777Z,0
2017-06-08T02:47:37.267Z,0
2017-06-08T02:48:17.734Z,0
2017-06-08T02:48:58.222Z,0
2017-06-08T02:49:38.703Z,0
2017-06-08T02:50:19.198Z,0
2017-06-08T02:50:59.722Z,0
2017-06-08T02:51:40.178Z,0
2017-06-08T02:52:20.681Z,0
2017-06-08T02:53:01.163Z,0
2017-06-08T02:53:41.653Z,0
2017-06-08T02:54:22.156Z,0
2017-06-08T02:55:02.640Z,0
2017-06-08T02:55:43.132Z,0
2017-06-08T02:56:23.621Z,0
2017-06-08T02:57:04.104Z,0
2017-06-08T02:57:44.575Z,0
2017-06-08T02:58:25.068Z,0
2017-06-08T02:59:05.574Z,0
2017-06-08T02:59:46.028Z,0
2017-06-08T03:00:26.525Z,0
2017-06-08T03:01:07.010Z,0
2017-06-08T03:01:47.495Z,0
2017-06-08T03:02:27.977Z,0
2017-06-08T03:03:08.500Z,0
2017-06-08T03:03:48.943Z,0
2017-06-08T03:04:29.412Z,0
2017-06-08T03:05:09.907Z,0
2017-06-08T03:05:50.363Z,0
2017-06-08T03:06:30.851Z,0
2017-06-08T03:07:11.330Z,0
2017-06-08T03:07:51.820Z,0
2017-06-08T03:08:32.297Z,0
2017-06-08T03:09:12.774Z,0
2017-06-08T03:09:53.269Z,0
2017-06-08T03:10:33.749Z,0
2017-06-08T03:11:14.267Z,0
2017-06-08T03:11:54.722Z,0
2017-06-08T03:12:35.205Z,0
2017-06-08T03:13:15.693Z,0
2017-06-08T03:13:56.167Z,0
2017-06-08T03:14:36.652Z,0
2017-06-08T03:15:17.153Z,0
2017-06-08T03:15:57.641Z,0
2017-06-08T03:16:38.144Z,0
2017-06-08T03:17:18.600Z,0
2017-06-08T03:17:59.115Z,0
2017-06-08T03:18:39.584Z,0
2017-06-08T03:19:20.068Z,0
2017-06-08T03:20:00.553Z,5
2017-06-08T03:20:41.032Z,5
2017-06-08T03:21:21.526Z,5
2017-06-08T03:22:01.998Z,5
2017-06-08T03:22:42.521Z,5
2017-06-08T03:23:22.974Z,5
2017-06-08T03:24:03.448Z,5
2017-06-08T03:24:43.940Z,5
2017-06-08T03:25:24.443Z,5
2017-06-08T03:26:04.925Z,5
2017-06-08T03:26:45.418Z,5
2017-06-08T03:27:25.910Z,5
2017-06-08T03:28:06.388Z,5
2017-06-08T03:28:46.871Z,5
2017-06-08T03:29:27.336Z,5
2017-06-08T03:30:07.833Z,5
2017-06-08T03:30:48.324Z,10
2017-06-08T03:31:28.803Z,10
2017-06-08T03:32:09.290Z,10
2017-06-08T03:32:49.770Z,10
2017-06-08T03:33:30.260Z,10
2017-06-08T03:34:10.740Z,10
2017-06-08T03:34:51.228Z,10
2017-06-08T03:35:31.695Z,10
2017-06-08T03:36:12.191Z,10
2017-06-08T03:36:52.677Z,10
2017-06-08T03:37:33.157Z,15
2017-06-08T03:38:13.644Z,15
2017-06-08T03:38:54.133Z,15
2017-06-08T03:39:34.605Z,15
2017-06-08T03:40:15.110Z,15
2017-06-08T03:40:55.579Z,15
2017-06-08T03:41:36.057Z,15
2017-06-08T03:42:16.551Z,15
2017-06-08T03:42:57.018Z,20
2017-06-08T03:43:37.493Z,20
2017-06-08T03:44:17.975Z,20
2017-06-08T03:44:58.477Z,20
2017-06-08T03:45:38.939Z,20
2017-06-08T03:46:19.422Z,20
2017-06-08T03:46:59.922Z,20
2017-06-08T03:47:40.449Z,25
2017-06-08T03:48:20.888Z,25
2017-06-08T03:49:01.383Z,25
2017-06-08T03:49:41.861Z,25
2017-06-08T03:50:22.339Z,25
2017-06-08T03:51:02.842Z,25
2017-06-08T03:51:43.295Z,30
2017-06-08T03:52:23.798Z,30
2017-06-08T03:53:04.264Z,30
2017-06-08T03:53:44.749Z,30
2017-06-08T03:54:25.253Z,30
2017-06-08T03:55:05.726Z,30
2017-06-08T03:55:46.213Z,35
2017-06-08T03:56:26.683Z,35
2017-06-08T03:57:07.157Z,35
2017-06-08T03:57:47.649Z,35
2017-06-08T03:58:28.116Z,35
2017-06-08T03:59:08.611Z,40
2017-06-08T03:59:49.101Z,40
2017-06-08T04:00:29.582Z,40
2017-06-08T04:01:10.074Z,40
2017-06-08T04:01:50.557Z,40
2017-06-08T04:02:31.036Z,40
2017-06-08T04:03:11.519Z,45
2017-06-08T04:03:52.011Z,45
2017-06-08T04:04:32.500Z,45
2017-06-08T04:05:12.995Z,45
2017-06-08T04:05:53.486Z,45
2017-06-08T04:06:33.970Z,45
2017-06-08T04:07:14.473Z,50
2017-06-08T04:07:54.960Z,50
2017-06-08T04:08:35.438Z,50
2017-06-08T04:09:15.925Z,50
2017-06-08T04:09:56.414Z,50
2017-06-08T04:10:36.930Z,55
2017-06-08T04:11:17.401Z,55
2017-06-08T04:11:57.876Z,55
2017-06-08T04:12:38.367Z,55
2017-06-08T04:13:18.850Z,55
2017-06-08T04:13:59.325Z,60
2017-06-08T04:14:39.820Z,60
2017-06-08T04:15:20.309Z,60
2017-06-08T04:16:00.787Z,60
2017-06-08T04:16:41.300Z,65
2017-06-08T04:17:21.787Z,65
2017-06-08T04:18:02.265Z,65
2017-06-08T04:18:42.774Z,65
2017-06-08T04:19:23.260Z,70
2017-06-08T04:20:03.730Z,70
2017-06-08T04:20:44.218Z,70
2017-06-08T04:21:25.525Z,70
2017-06-08T04:22:05.148Z,75
2017-06-08T04:22:45.635Z,75
2017-06-08T04:23:26.124Z,75
2017-06-08T04:24:06.610Z,75
2017-06-08T04:24:47.090Z,75
2017-06-08T04:25:27.595Z,80
2017-06-08T04:26:08.171Z,80
2017-06-08T04:26:48.548Z,80
2017-06-08T04:27:29.043Z,80
2017-06-08T04:28:09.528Z,85
2017-06-08T04:28:50.007Z,85
2017-06-08T04:29:30.480Z,85
2017-06-08T04:30:10.952Z,90
2017-06-08T04:30:51.436Z,90
2017-06-08T04:31:31.921Z,90
2017-06-08T04:32:12.400Z,90
2017-06-08T04:32:52.909Z,100
2017-06-08T04:33:33.503Z,115
2017-06-08T04:34:13.986Z,130
2017-06-08T04:34:54.475Z,135
2017-06-08T04:35:34.979Z,140
2017-06-08T04:36:15.465Z,140
2017-06-08T04:36:55.937Z,140
2017-06-08T04:37:37.251Z,140
2017-06-08T04:38:17.726Z,140
2017-06-08T04:38:58.211Z,140
2017-06-08T04:39:38.688Z,140
2017-06-08T04:40:19.181Z,140
2017-06-08T04:40:59.672Z,135
2017-06-08T04:41:40.150Z,135
2017-06-08T04:42:20.625Z,140
2017-06-08T04:43:01.117Z,135
2017-06-08T04:43:41.609Z,135
2017-06-08T04:44:22.098Z,130
2017-06-08T04:45:02.563Z,120
2017-06-08T04:45:43.042Z,135
2017-06-08T04:46:23.540Z,140
2017-06-08T04:47:04.026Z,155
2017-06-08T04:47:44.529Z,155
2017-06-08T04:48:25.019Z,140
2017-06-08T04:49:05.507Z,145
2017-06-08T04:49:46.005Z,140
2017-06-08T04:50:26.503Z,130
2017-06-08T04:51:06.990Z,125
2017-06-08T04:51:47.483Z,130
2017-06-08T04:52:27.975Z,135
2017-06-08T04:53:08.466Z,125
2017-06-08T04:53:49.890Z,130
2017-06-08T04:54:30.389Z,140
2017-06-08T04:55:10.857Z,140
2017-06-08T04:55:51.358Z,145
2017-06-08T04:56:31.849Z,150
2017-06-08T04:57:12.345Z,155
2017-06-08T04:57:52.836Z,160
2017-06-08T04:58:33.329Z,170
2017-06-08T04:59:13.814Z,170
2017-06-08T04:59:54.314Z,175
2017-06-08T05:00:34.806Z,185
2017-06-08T05:01:15.293Z,195
2017-06-08T05:01:55.790Z,180
2017-06-08T05:02:36.286Z,190
2017-06-08T05:03:16.779Z,190
2017-06-08T05:03:57.269Z,190
2017-06-08T05:04:37.767Z,180
2017-06-08T05:05:18.253Z,165
2017-06-08T05:05:58.746Z,160
2017-06-08T05:06:39.248Z,165
2017-06-08T05:07:19.730Z,160
2017-06-08T05:08:00.225Z,160
2017-06-08T05:08:40.734Z,160
2017-06-08T05:09:21.229Z,160
2017-06-08T05:10:01.731Z,160
2017-06-08T05:10:42.243Z,160
2017-06-08T05:11:22.750Z,160
2017-06-08T05:12:03.245Z,165
2017-06-08T05:12:43.726Z,170
2017-06-08T05:13:24.230Z,170
2017-06-08T05:14:04.721Z,170
2017-06-08T05:14:45.215Z,175
2017-06-08T05:15:25.717Z,175
2017-06-08T05:16:06.209Z,180
2017-06-08T05:16:46.697Z,190
2017-06-08T05:17:27.193Z,195
2017-06-08T05:18:07.690Z,200
2017-06-08T05:18:48.160Z,210
2017-06-08T05:19:28.651Z,230
2017-06-08T05:20:09.136Z,225
2017-06-08T05:20:49.619Z,220
2017-06-08T05:21:30.111Z,235
2017-06-08T05:22:10.611Z,225
2017-06-08T05:22:51.096Z,230
2017-06-08T05:23:31.587Z,255
2017-06-08T05:24:12.085Z,220
2017-06-08T05:24:52.570Z,220
2017-06-08T05:25:33.059Z,210
2017-06-08T05:26:13.558Z,200
2017-06-08T05:26:54.047Z,200
2017-06-08T05:27:34.539Z,200
2017-06-08T05:28:15.037Z,200
2017-06-08T05:28:55.538Z,200
2017-06-08T05:29:36.054Z,200
2017-06-08T05:30:16.542Z,195
2017-06-08T05:30:57.038Z,195
2017-06-08T05:31:37.545Z,195
2017-06-08T05:32:18.033Z,190
2017-06-08T05:32:58.525Z,195
2017-06-08T05:33:39.024Z,195
2017-06-08T05:34:19.516Z,195
2017-06-08T05:35:00.014Z,200
2017-06-08T05:35:40.525Z,200
2017-06-08T05:36:21.015Z,200
2017-06-08T05:37:01.493Z,200
2017-06-08T05:37:41.989Z,205
2017-06-08T05:38:22.471Z,205
2017-06-08T05:39:02.962Z,205
2017-06-08T05:39:43.459Z,210
2017-06-08T05:40:23.960Z,205
2017-06-08T05:41:04.453Z,210
2017-06-08T05:41:44.929Z,205
2017-06-08T05:42:25.437Z,205
2017-06-08T05:43:05.930Z,205
2017-06-08T05:43:46.419Z,210
2017-06-08T05:44:26.904Z,210
2017-06-08T05:45:07.404Z,210
2017-06-08T05:45:47.908Z,215
2017-06-08T05:46:28.395Z,220
2017-06-08T05:47:08.881Z,225
2017-06-08T05:47:49.378Z,235
2017-06-08T05:48:29.875Z,245
2017-06-08T05:49:10.374Z,240
2017-06-08T05:49:50.867Z,245
2017-06-08T05:50:31.357Z,250
2017-06-08T05:51:11.841Z,250
2017-06-08T05:51:52.322Z,255
2017-06-08T05:52:32.823Z,255
2017-06-08T05:53:13.325Z,260
2017-06-08T05:53:53.820Z,265
2017-06-08T05:54:34.315Z,255
2017-06-08T05:55:14.798Z,255
2017-06-08T05:55:55.267Z,250
2017-06-08T05:56:35.751Z,255
2017-06-08T05:57:16.235Z,260
2017-06-08T05:57:56.731Z,265
2017-06-08T05:58:37.212Z,270
2017-06-08T05:59:17.713Z,275
2017-06-08T05:59:58.203Z,280
2017-06-08T06:00:38.692Z,295
2017-06-08T06:01:19.191Z,285
2017-06-08T06:01:59.690Z,295
2017-06-08T06:04:37.776Z,285
2017-06-08T06:05:18.262Z,295
2017-06-08T06:05:58.754Z,310
2017-06-08T06:06:39.238Z,310
2017-06-08T06:07:19.731Z,330
2017-06-08T06:08:00.230Z,335
2017-06-08T06:08:40.716Z,335
2017-06-08T06:09:21.210Z,340
2017-06-08T06:10:01.721Z,340
2017-06-08T06:10:42.225Z,350
2017-06-08T06:11:22.714Z,350
2017-06-08T06:12:03.199Z,345
2017-06-08T06:12:43.692Z,355
2017-06-08T06:13:24.192Z,335
2017-06-08T06:14:04.686Z,330
2017-06-08T06:14:45.189Z,330
2017-06-08T06:15:25.654Z,330
2017-06-08T06:16:06.155Z,365
2017-06-08T06:16:46.643Z,330
2017-06-08T06:17:27.157Z,325
2017-06-08T06:18:07.641Z,325
2017-06-08T06:18:48.134Z,325
2017-06-08T06:19:29.290Z,320
2017-06-08T06:20:09.795Z,340
2017-06-08T06:20:50.294Z,330
2017-06-08T06:21:30.788Z,335
2017-06-08T06:22:11.280Z,330
2017-06-08T06:22:51.777Z,320
2017-06-08T06:23:32.265Z,330
2017-06-08T06:24:12.764Z,315
2017-06-08T06:24:53.254Z,320
2017-06-08T06:25:33.836Z,315
2017-06-08T06:26:14.290Z,320
2017-06-08T06:26:54.817Z,330
2017-06-08T06:27:35.337Z,335
2017-06-08T06:28:15.823Z,335
2017-06-08T06:28:56.316Z,335
2017-06-08T06:29:36.801Z,365
2017-06-08T06:30:17.288Z,350
2017-06-08T06:30:57.781Z,315
2017-06-08T06:31:38.275Z,390
2017-06-08T06:32:18.773Z,420
2017-06-08T06:32:59.261Z,330
2017-06-08T06:33:39.754Z,315
2017-06-08T06:34:21.211Z,320
2017-06-08T06:35:01.714Z,340
2017-06-08T06:35:42.229Z,385
2017-06-08T06:36:22.728Z,435
2017-06-08T06:37:03.234Z,430
2017-06-08T06:37:43.739Z,400
2017-06-08T06:38:24.221Z,425
2017-06-08T06:39:04.717Z,490
2017-06-08T06:39:45.212Z,465
2017-06-08T06:40:25.832Z,495
2017-06-08T06:41:06.331Z,380
2017-06-08T06:41:46.824Z,445
2017-06-08T06:42:28.003Z,480
2017-06-08T06:43:08.495Z,410
2017-06-08T06:43:48.996Z,445
2017-06-08T06:44:29.505Z,470
2017-06-08T06:45:10.034Z,480
2017-06-08T06:45:50.528Z,455
2017-06-08T06:46:31.088Z,435
2017-06-08T06:47:11.576Z,425
2017-06-08T06:47:52.071Z,400
2017-06-08T06:48:32.565Z,395
2017-06-08T06:49:13.100Z,405
2017-06-08T06:49:53.595Z,420
2017-06-08T06:50:34.078Z,405
2017-06-08T06:51:14.562Z,450
2017-06-08T06:51:55.050Z,455
2017-06-08T06:52:35.558Z,455
2017-06-08T06:53:16.082Z,455
2017-06-08T06:53:56.579Z,460
2017-06-08T06:54:37.061Z,435
2017-06-08T06:55:17.550Z,415
2017-06-08T06:55:58.056Z,430
2017-06-08T06:56:38.585Z,455
2017-06-08T06:57:19.042Z,455
2017-06-08T06:57:59.529Z,475
2017-06-08T06:58:40.021Z,480
2017-06-08T06:59:20.549Z,465
2017-06-08T07:00:01.060Z,500
2017-06-08T07:00:41.535Z,490
2017-06-08T07:01:22.027Z,515
2017-06-08T07:02:02.534Z,530
2017-06-08T07:02:44.037Z,530
2017-06-08T07:03:24.551Z,535
2017-06-08T07:04:05.032Z,525
2017-06-08T07:04:45.513Z,545
2017-06-08T07:05:26.016Z,555
2017-06-08T07:06:06.505Z,560
2017-06-08T07:06:46.998Z,560
2017-06-08T07:07:27.494Z,580
2017-06-08T07:08:07.981Z,580
2017-06-08T07:08:48.488Z,510
2017-06-08T07:09:28.992Z,565
2017-06-08T07:10:09.482Z,535
2017-06-08T07:10:49.947Z,565
2017-06-08T07:11:30.474Z,540
2017-06-08T07:12:10.938Z,545
2017-06-08T07:12:51.405Z,555
2017-06-08T07:15:19.416Z,515
2017-06-08T07:15:59.885Z,495
2017-06-08T07:16:40.332Z,525
2017-06-08T07:17:20.803Z,515
2017-06-08T07:18:01.337Z,535
2017-06-08T07:18:41.813Z,525
2017-06-08T07:19:22.270Z,505
2017-06-08T07:20:02.736Z,535
2017-06-08T07:20:43.195Z,520
2017-06-08T07:21:23.683Z,510
2017-06-08T07:24:01.815Z,550
2017-06-08T07:24:42.275Z,535
2017-06-08T07:25:22.779Z,545
2017-06-08T07:26:03.340Z,545
2017-06-08T07:26:43.837Z,545
2017-06-08T07:27:24.327Z,545
2017-06-08T07:28:04.809Z,545
2017-06-08T07:28:45.405Z,555
2017-06-08T07:29:25.912Z,540
2017-06-08T07:31:58.998Z,580
2017-06-08T07:32:39.488Z,600
2017-06-08T07:33:19.996Z,615
2017-06-08T07:34:00.480Z,645
2017-06-08T07:34:40.975Z,625
2017-06-08T07:35:21.480Z,630
2017-06-08T07:36:01.962Z,595
2017-06-08T07:36:42.429Z,665
2017-06-08T07:37:22.933Z,695
2017-06-08T07:38:03.426Z,705
2017-06-08T07:38:43.917Z,730
2017-06-08T07:39:24.427Z,725
2017-06-08T07:40:04.955Z,795
2017-06-08T07:40:45.445Z,865
2017-06-08T07:41:25.932Z,905
2017-06-08T07:42:06.401Z,860
2017-06-08T07:42:46.914Z,900
2017-06-08T07:43:27.403Z,935
2017-06-08T07:44:07.885Z,990
2017-06-08T07:44:48.419Z,1075
2017-06-08T07:45:28.908Z,1375
2017-06-08T07:47:41.643Z,2215
2017-06-08T07:48:22.203Z,2030
2017-06-08T07:49:02.687Z,1775
2017-06-08T07:49:43.189Z,1840
2017-06-08T07:50:25.336Z,1895
2017-06-08T07:51:06.906Z,1965
2017-06-08T07:53:45.069Z,1960
2017-06-08T07:54:25.645Z,1890
2017-06-08T07:56:53.577Z,1625
2017-06-08T07:57:34.117Z,1550
2017-06-08T07:58:14.619Z,1690
2017-06-08T07:58:55.113Z,1790
2017-06-08T07:59:35.591Z,1845
2017-06-08T08:00:16.070Z,1995
2017-06-08T08:00:56.641Z,2020
2017-06-08T08:01:37.105Z,2115
2017-06-08T08:02:17.626Z,2010
2017-06-08T08:02:58.132Z,2040
2017-06-08T08:03:38.606Z,2030
2017-06-08T08:04:19.087Z,2095
2017-06-08T08:04:59.650Z,2040
2017-06-08T08:05:40.154Z,1910
2017-06-08T08:06:20.687Z,1855
2017-06-08T08:07:01.170Z,1895
2017-06-08T08:07:41.705Z,2010
2017-06-08T08:08:22.208Z,2025
2017-06-08T08:09:02.738Z,1870
2017-06-08T08:09:43.337Z,1915
2017-06-08T08:10:23.826Z,1945
2017-06-08T08:11:04.321Z,1885
2017-06-08T08:11:44.813Z,1785
2017-06-08T08:12:25.298Z,1710
2017-06-08T08:13:05.797Z,1640
2017-06-08T08:13:46.306Z,1460
2017-06-08T08:14:26.808Z,1310
2017-06-08T08:15:07.304Z,1190
2017-06-08T08:15:47.799Z,1050
2017-06-08T08:16:28.306Z,885
2017-06-08T08:17:08.771Z,830
2017-06-08T08:17:49.324Z,795
2017-06-08T08:18:29.818Z,780
2017-06-08T08:19:10.306Z,720
2017-06-08T08:19:50.916Z,770
2017-06-08T08:20:31.426Z,775
2017-06-08T08:21:11.905Z,765
2017-06-08T08:21:52.398Z,745
2017-06-08T08:22:32.891Z,740
2017-06-08T08:23:13.410Z,745
2017-06-08T08:23:53.916Z,745
2017-06-08T08:24:34.436Z,740
2017-06-08T08:25:14.930Z,735
2017-06-08T08:25:55.432Z,715
2017-06-08T08:26:35.953Z,740
2017-06-08T08:27:16.441Z,735
2017-06-08T08:27:56.930Z,735
2017-06-08T08:28:37.485Z,760
2017-06-08T08:31:05.473Z,750
2017-06-08T08:31:45.967Z,745
2017-06-08T08:32:26.514Z,750
2017-06-08T08:33:07.017Z,760
2017-06-08T08:33:47.499Z,765
2017-06-08T08:34:27.988Z,740
2017-06-08T08:35:08.494Z,705
2017-06-08T08:35:48.978Z,675
2017-06-08T08:36:29.461Z,655
2017-06-08T08:37:09.967Z,635
2017-06-08T08:37:50.465Z,640
2017-06-08T08:38:30.950Z,640
2017-06-08T08:39:11.447Z,640
2017-06-08T08:39:52.032Z,635
2017-06-08T08:40:32.528Z,645
2017-06-08T08:41:13.080Z,645
2017-06-08T08:41:53.547Z,645
2017-06-08T08:42:34.138Z,660
2017-06-08T08:43:14.635Z,660
2017-06-08T08:43:55.147Z,675
2017-06-08T08:44:35.659Z,690
2017-06-08T08:45:16.149Z,685
2017-06-08T08:45:56.688Z,720
2017-06-08T08:46:37.204Z,815
2017-06-08T08:47:17.717Z,940
2017-06-08T08:47:58.296Z,1035
2017-06-08T08:48:38.736Z,1090
2017-06-08T08:49:19.235Z,1180
2017-06-08T08:49:59.758Z,1285
2017-06-08T08:50:40.233Z,1320
2017-06-08T08:51:20.732Z,1330
2017-06-08T08:52:01.234Z,1350
2017-06-08T08:52:41.712Z,1405
2017-06-08T08:53:22.236Z,1410
2017-06-08T08:54:02.768Z,1455
2017-06-08T08:54:43.274Z,1435
2017-06-08T08:55:23.758Z,1365
2017-06-08T08:56:04.253Z,1470
2017-06-08T08:56:44.743Z,1500
2017-06-08T08:57:25.252Z,1620
2017-06-08T08:58:05.763Z,1620
2017-06-08T08:58:46.255Z,1570
2017-06-08T08:59:26.757Z,1585
2017-06-08T09:00:07.297Z,1540
2017-06-08T09:00:47.772Z,1540
2017-06-08T09:01:28.264Z,1550
2017-06-08T09:02:08.741Z,1605
2017-06-08T09:02:49.254Z,1610
2017-06-08T09:03:29.746Z,1625
2017-06-08T09:04:10.247Z,1560
2017-06-08T09:04:50.731Z,1495
2017-06-08T09:05:31.289Z,1550
2017-06-08T09:06:11.793Z,1550
2017-06-08T09:06:52.304Z,1540
2017-06-08T09:07:32.829Z,1560
2017-06-08T09:08:13.379Z,1550
2017-06-08T09:08:53.802Z,1570
2017-06-08T09:09:34.320Z,1555
2017-06-08T09:10:14.823Z,1580
2017-06-08T09:10:55.302Z,1540
2017-06-08T09:11:35.827Z,1590
2017-06-08T09:12:16.345Z,1605
2017-06-08T09:12:56.814Z,1645
2017-06-08T09:13:37.328Z,1640
2017-06-08T09:14:17.841Z,1700
2017-06-08T09:14:58.373Z,1750
2017-06-08T09:15:38.955Z,1820
2017-06-08T09:16:20.326Z,1895
2017-06-08T09:17:00.837Z,1955
2017-06-08T09:17:41.364Z,2030
2017-06-08T09:18:21.880Z,2185
2017-06-08T09:19:02.377Z,2320
2017-06-08T09:19:42.866Z,2380
2017-06-08T09:20:23.317Z,2365
2017-06-08T09:21:03.804Z,2355
2017-06-08T09:21:44.287Z,2445
2017-06-08T09:22:24.738Z,2520
2017-06-08T09:23:05.209Z,2485
2017-06-08T09:23:45.697Z,2515
2017-06-08T09:24:26.156Z,2705
2017-06-08T09:25:06.675Z,2740
2017-06-08T09:25:47.182Z,2540
2017-06-08T09:26:27.663Z,2860
2017-06-08T09:27:08.161Z,2970
2017-06-08T09:27:48.657Z,3080
2017-06-08T09:28:29.152Z,3055
2017-06-08T09:29:09.653Z,3170
2017-06-08T09:29:50.147Z,3225
2017-06-08T09:30:30.637Z,3325
2017-06-08T09:31:11.146Z,3240
2017-06-08T09:33:29.013Z,2875
2017-06-08T09:34:09.559Z,2945
2017-06-08T09:34:50.053Z,2800
2017-06-08T09:37:07.900Z,2625
2017-06-08T09:37:48.429Z,2465
2017-06-08T09:38:28.866Z,2635
2017-06-08T09:39:09.393Z,2775
2017-06-08T09:39:49.943Z,2835
2017-06-08T09:40:30.428Z,2805
2017-06-08T09:43:03.539Z,3210
2017-06-08T09:43:44.029Z,3305
2017-06-08T09:44:24.527Z,3340
2017-06-08T09:45:05.097Z,3380
2017-06-08T09:45:45.506Z,3320
2017-06-08T09:46:25.988Z,3275
2017-06-08T09:47:06.443Z,3165
2017-06-08T09:47:46.964Z,3040
2017-06-08T09:48:27.444Z,2975
2017-06-08T09:49:07.920Z,2985
2017-06-08T09:49:48.444Z,2780
2017-06-08T09:50:29.470Z,2670
2017-06-08T09:51:09.973Z,2205
2017-06-08T09:51:50.639Z,1845
2017-06-08T09:52:31.125Z,1590
2017-06-08T09:55:04.194Z,1250
2017-06-08T09:55:44.701Z,1210
2017-06-08T09:56:25.192Z,1250